AirNav   Everest Fuels
 
 1085 users online  

12Y Le Sueur Municipal Airport
Le Sueur, Minnesota, USA

GOING TO LE SUEUR?


FAA INFORMATION EFFECTIVE 08 SEPTEMBER 2022

Location

FAA Identifier: 12Y
Lat/Long: 44-26-27.1971N 093-54-57.0502W
44-26.453285N 093-54.950837W
44.4408881,-93.9158473
(estimated)
Elevation: 867.5 ft. / 264.4 m (surveyed)
Variation: 04E (1985)
From city: 2 miles S of LE SUEUR, MN
Time zone: UTC -5 (UTC -6 during Standard Time)
Zip code: 56058

Airport Operations

Airport use: Open to the public
Activation date: 12/1945
Control tower: no
ARTCC: MINNEAPOLIS CENTER
FSS: PRINCETON FLIGHT SERVICE STATION
NOTAMs facility: PNM (NOTAM-D service available)
Attendance: MON-FRI 0800-1700
Wind indicator: lighted
Segmented circle: no
Lights: ACTVT OR INCR INTST REIL RWY 13 & 31; PAPI RWY 13 & 31; MIRL RWY 13/31 - CTAF. MIRL RWY 13/31 PRESET LOW INTST.
Beacon: white-green (lighted land airport)
Operates sunset to sunrise.

Airport Communications

CTAF: 122.9
WX AWOS-3PT at MKT (13 nm S): 118.175 (507-625-3726)

Nearby radio navigation aids

VOR radial/distance  VOR name  Freq  Var
MKTr352/13.3MANKATO VOR/DME110.8007E
FOWr299/27.4HALFWAY VOR/DME111.2002E
FCMr220/30.7FLYING CLOUD VOR/DME117.7001E
FGTr244/33.4FARMINGTON VORTAC115.7006E
MSPr225/39.8MINNEAPOLIS VOR/DME115.3002E

Airport Services

Fuel available: 100LL JET-A
100LL:100LL & JET A AVBL H24 SELF SVC VIA CREDIT CARD.
Parking: tiedowns
Airframe service: MINOR
Powerplant service: MINOR
Bottled oxygen: NONE
Bulk oxygen: NONE

Runway Information

Runway 13/31

Dimensions: 3000 x 75 ft. / 914 x 23 m
Surface: asphalt, in fair condition
Runway edge lights: medium intensity
RUNWAY 13  RUNWAY 31
Latitude: 44-26.628037N44-26.278532N
Longitude: 093-55.194207W093-54.707465W
Elevation: 838.2 ft.867.4 ft.
Traffic pattern: leftleft
Runway heading: 131 magnetic, 135 true311 magnetic, 315 true
Markings: nonprecision, in good conditionnonprecision, in good condition
Visual slope indicator: 4-light PAPI on left (2.75 degrees glide path)4-light PAPI on left (2.75 degrees glide path)
Runway end identifier lights: yesyes
Touchdown point: yes, no lightsyes, no lights

Airport Ownership and Management from official FAA records

Ownership: Publicly-owned
Owner: CITY OF LE SUEUR
203 S 2ND ST, PO BOX 176
LE SUEUR, MN 56058
Phone 507-665-6401
Manager: ANDREW CEMENSKI
505 BORIGHT ST
LE SUEUR, MN 56058-1452
Phone 507-593-8351

Airport Operational Statistics

Aircraft based on the field: 31
Single engine airplanes: 15
Helicopters: 16
    
Aircraft operations: avg 49/week *
59% local general aviation
39% transient general aviation
2% military
* for 12-month period ending 31 August 2019

Additional Remarks

DEER ON & INVOF ARPT.
RWY END 13 NOT VSB FM RWY END 31.
FOR CD CTC MINNEAPOLIS ARTCC AT 651-463-5588.

Instrument Procedures

There are no published instrument procedures at 12Y.

Some nearby airports with instrument procedures:

KMKT - Mankato Regional Airport (13 nm S)
KGYL - Glencoe Municipal Airport (20 nm N)
KULM - New Ulm Municipal Airport (26 nm W)
KFBL - Faribault Municipal Airport-Liz Wall Strohfus Field (27 nm E)
KACQ - Waseca Municipal Airport (27 nm SE)
 
Loc | Ops | Rwys | IFR | FBO | Links
Com | Nav | Svcs | Stats | Notes
Area around 12Y (Le Sueur Municipal Airport)
 
Road maps at: MapQuest Bing Google
 
Aerial photo
WARNING: Photo may not be current or correct
Aerial photo of 12Y (Le Sueur Municipal Airport)
Photo taken 20-Oct-2007
from 3500 feet

Do you have a better or more recent aerial photo of Le Sueur Municipal Airport that you would like to share? If so, please send us your photo.

 
Sectional chart

 
Airport distance calculator
Flying to Le Sueur Municipal Airport? Find the distance to fly.

From to 12Y

Sunrise and sunset
Times for 25-Sep-2022
 Local
(UTC-5)
 Zulu
(UTC)
Morning civil twilight06:3811:38
Sunrise07:0712:07
Sunset19:0700:07
Evening civil twilight19:3600:36

Current date and time
Zulu (UTC)  25-Sep-2022 22:16:15
Local (UTC-5)  25-Sep-2022 17:16:15
 
METAR
KMKT 
13nm S 
252156Z AUTO 33020G31KT 10SM FEW075 18/02 A2996 RMK AO2 PK WND 34035/2059 SLP149 T01830017
KGYL 
20nm N 
252155Z AUTO 30017G24KT 7SM SCT080 19/03 A2995 RMK AO2 T01890031
KULM 
26nm W 
252155Z AUTO 34023G31KT 10SM CLR 19/00 A2998 RMK AO2
KFBL 
27nm E 
252155Z AUTO 31015G25KT 10SM SCT070 19/03 A2993 RMK AO2
TAF
KMKT 
13nm S 
251720Z 2518/2618 31020G30KT P6SM SKC FM260000 32014G19KT P6SM SKC FM260200 32010KT P6SM SKC FM261600 33012G21KT P6SM SKC
NOTAMs
Click for the latest NOTAMs
NOTAMs are issued by the DoD/FAA and will open in a separate window not controlled by AirNav.

 

 
 

FBO, Fuel Providers, and Aircraft Ground Support

  
 Business Name 
 
 Contact 
 
 Services / Description 
 
Fuel Prices
 
Comments
  
City of Le Sueur 507-593-8351
no information available

If you are affiliated with City of Le Sueur and would like to show here your services, contact info, web link, logo, and more, click here
100LL
SS $6.30 
 Updated 15-Sep-2022
 
   2 read write
SS=Self service
Update Fuel Prices
 

Would you like to see your business listed on this page?

 If your business provides an interesting product or service to pilots, flight crews, aircraft, or users of the Le Sueur Municipal Airport, you should consider listing it here.  To start the listing process, click on the button below
 
Add a business
 

Other Pages about Le Sueur Municipal Airport

Update a link
 
Copyright © AirNav, LLC. All rights reserved. Privacy Policy  Contact